sensor_id;sensor_type;location;lat;lon;timestamp;P1;durP1;ratioP1;P2;durP2;ratioP2
11346;SDS011;5728;42.722;23.258;2023-12-14T00:02:19;9.90;;;7.17;;
11346;SDS011;5728;42.722;23.258;2023-12-14T00:04:46;15.70;;;8.33;;
11346;SDS011;5728;42.722;23.258;2023-12-14T00:07:13;14.40;;;9.33;;
11346;SDS011;5728;42.722;23.258;2023-12-14T00:09:42;13.57;;;8.10;;
11346;SDS011;5728;42.722;23.258;2023-12-14T00:12:09;13.93;;;8.23;;
11346;SDS011;5728;42.722;23.258;2023-12-14T00:14:36;14.23;;;8.80;;
11346;SDS011;5728;42.722;23.258;2023-12-14T00:17:03;14.33;;;9.43;;
11346;SDS011;5728;42.722;23.258;2023-12-14T00:19:31;15.43;;;9.97;;
11346;SDS011;5728;42.722;23.258;2023-12-14T00:21:57;13.70;;;8.37;;
11346;SDS011;5728;42.722;23.258;2023-12-14T00:24:25;12.60;;;8.53;;
11346;SDS011;5728;42.722;23.258;2023-12-14T00:26:55;13.50;;;9.10;;
11346;SDS011;5728;42.722;23.258;2023-12-14T00:29:22;16.03;;;9.33;;
11346;SDS011;5728;42.722;23.258;2023-12-14T00:31:49;14.63;;;10.00;;
11346;SDS011;5728;42.722;23.258;2023-12-14T00:34:16;13.93;;;9.50;;
11346;SDS011;5728;42.722;23.258;2023-12-14T00:36:44;15.70;;;9.50;;
11346;SDS011;5728;42.722;23.258;2023-12-14T00:39:11;15.90;;;9.93;;
11346;SDS011;5728;42.722;23.258;2023-12-14T00:41:38;14.37;;;8.57;;
11346;SDS011;5728;42.722;23.258;2023-12-14T00:44:07;15.07;;;9.33;;
11346;SDS011;5728;42.722;23.258;2023-12-14T00:46:35;13.33;;;8.50;;
11346;SDS011;5728;42.722;23.258;2023-12-14T00:49:02;16.80;;;9.70;;
11346;SDS011;5728;42.722;23.258;2023-12-14T00:51:29;17.53;;;10.00;;
11346;SDS011;5728;42.722;23.258;2023-12-14T00:53:56;13.90;;;9.30;;
11346;SDS011;5728;42.722;23.258;2023-12-14T00:56:23;10.53;;;7.53;;
11346;SDS011;5728;42.722;23.258;2023-12-14T00:58:50;15.37;;;8.03;;
11346;SDS011;5728;42.722;23.258;2023-12-14T01:01:19;11.83;;;7.97;;
11346;SDS011;5728;42.722;23.258;2023-12-14T01:03:46;12.47;;;8.47;;
11346;SDS011;5728;42.722;23.258;2023-12-14T01:06:13;10.17;;;7.23;;
11346;SDS011;5728;42.722;23.258;2023-12-14T01:08:40;14.77;;;8.30;;
11346;SDS011;5728;42.722;23.258;2023-12-14T01:11:06;12.03;;;7.73;;
11346;SDS011;5728;42.722;23.258;2023-12-14T01:13:33;14.37;;;8.50;;
11346;SDS011;5728;42.722;23.258;2023-12-14T01:16:00;11.93;;;7.70;;
11346;SDS011;5728;42.722;23.258;2023-12-14T01:18:29;14.67;;;8.17;;
11346;SDS011;5728;42.722;23.258;2023-12-14T01:20:56;18.20;;;8.77;;
11346;SDS011;5728;42.722;23.258;2023-12-14T01:23:23;11.03;;;7.93;;
11346;SDS011;5728;42.722;23.258;2023-12-14T01:25:50;12.83;;;9.03;;
11346;SDS011;5728;42.722;23.258;2023-12-14T01:28:17;14.13;;;9.13;;
11346;SDS011;5728;42.722;23.258;2023-12-14T01:30:44;15.20;;;8.53;;
11346;SDS011;5728;42.722;23.258;2023-12-14T01:33:11;16.00;;;10.20;;
11346;SDS011;5728;42.722;23.258;2023-12-14T01:35:39;13.70;;;9.10;;
11346;SDS011;5728;42.722;23.258;2023-12-14T01:38:06;16.47;;;9.33;;
11346;SDS011;5728;42.722;23.258;2023-12-14T01:40:33;15.17;;;8.83;;
11346;SDS011;5728;42.722;23.258;2023-12-14T01:43:07;11.93;;;8.33;;
11346;SDS011;5728;42.722;23.258;2023-12-14T01:45:35;16.60;;;10.13;;
11346;SDS011;5728;42.722;23.258;2023-12-14T01:48:03;14.67;;;9.20;;
11346;SDS011;5728;42.722;23.258;2023-12-14T01:50:30;13.50;;;8.60;;
11346;SDS011;5728;42.722;23.258;2023-12-14T01:52:58;14.13;;;9.07;;
11346;SDS011;5728;42.722;23.258;2023-12-14T01:55:25;19.50;;;10.23;;
11346;SDS011;5728;42.722;23.258;2023-12-14T01:57:52;15.57;;;9.47;;
11346;SDS011;5728;42.722;23.258;2023-12-14T02:00:24;16.97;;;10.10;;
11346;SDS011;5728;42.722;23.258;2023-12-14T02:02:58;18.07;;;10.27;;
11346;SDS011;5728;42.722;23.258;2023-12-14T02:05:25;14.50;;;9.53;;
11346;SDS011;5728;42.722;23.258;2023-12-14T02:07:51;17.33;;;10.60;;
11346;SDS011;5728;42.722;23.258;2023-12-14T02:10:20;16.50;;;8.93;;
11346;SDS011;5728;42.722;23.258;2023-12-14T02:12:47;14.37;;;9.20;;
11346;SDS011;5728;42.722;23.258;2023-12-14T02:15:14;14.10;;;8.50;;
11346;SDS011;5728;42.722;23.258;2023-12-14T02:17:41;13.97;;;9.87;;
11346;SDS011;5728;42.722;23.258;2023-12-14T02:20:08;16.00;;;9.00;;
11346;SDS011;5728;42.722;23.258;2023-12-14T02:22:47;18.33;;;9.83;;
11346;SDS011;5728;42.722;23.258;2023-12-14T02:25:15;14.30;;;8.47;;
11346;SDS011;5728;42.722;23.258;2023-12-14T02:27:42;12.57;;;7.80;;
11346;SDS011;5728;42.722;23.258;2023-12-14T02:30:09;11.23;;;8.10;;
11346;SDS011;5728;42.722;23.258;2023-12-14T02:32:37;20.73;;;8.90;;
11346;SDS011;5728;42.722;23.258;2023-12-14T02:35:05;13.67;;;8.80;;
11346;SDS011;5728;42.722;23.258;2023-12-14T02:37:33;12.73;;;8.80;;
11346;SDS011;5728;42.722;23.258;2023-12-14T02:40:03;12.53;;;8.50;;
11346;SDS011;5728;42.722;23.258;2023-12-14T02:42:31;10.70;;;7.23;;
11346;SDS011;5728;42.722;23.258;2023-12-14T02:44:58;12.17;;;7.30;;
11346;SDS011;5728;42.722;23.258;2023-12-14T02:47:27;13.80;;;8.23;;
11346;SDS011;5728;42.722;23.258;2023-12-14T02:49:54;16.57;;;8.40;;
11346;SDS011;5728;42.722;23.258;2023-12-14T02:52:21;19.33;;;8.47;;
11346;SDS011;5728;42.722;23.258;2023-12-14T02:54:48;15.30;;;7.43;;
11346;SDS011;5728;42.722;23.258;2023-12-14T02:57:17;8.30;;;6.70;;
11346;SDS011;5728;42.722;23.258;2023-12-14T02:59:44;14.73;;;7.70;;
11346;SDS011;5728;42.722;23.258;2023-12-14T03:02:11;9.23;;;6.43;;
11346;SDS011;5728;42.722;23.258;2023-12-14T03:04:38;9.70;;;6.47;;
11346;SDS011;5728;42.722;23.258;2023-12-14T03:07:05;7.07;;;5.43;;
11346;SDS011;5728;42.722;23.258;2023-12-14T03:09:32;9.20;;;6.23;;
11346;SDS011;5728;42.722;23.258;2023-12-14T03:12:00;7.60;;;6.27;;
11346;SDS011;5728;42.722;23.258;2023-12-14T03:14:31;10.43;;;6.57;;
11346;SDS011;5728;42.722;23.258;2023-12-14T03:16:59;8.67;;;6.23;;
11346;SDS011;5728;42.722;23.258;2023-12-14T03:19:26;7.50;;;6.07;;
11346;SDS011;5728;42.722;23.258;2023-12-14T03:21:53;8.03;;;5.60;;
11346;SDS011;5728;42.722;23.258;2023-12-14T03:24:20;7.77;;;6.07;;
11346;SDS011;5728;42.722;23.258;2023-12-14T03:26:47;10.37;;;6.77;;
11346;SDS011;5728;42.722;23.258;2023-12-14T03:29:14;8.30;;;6.20;;
11346;SDS011;5728;42.722;23.258;2023-12-14T03:31:42;9.57;;;6.57;;
11346;SDS011;5728;42.722;23.258;2023-12-14T03:34:10;10.03;;;6.10;;
11346;SDS011;5728;42.722;23.258;2023-12-14T03:36:37;10.53;;;6.40;;
11346;SDS011;5728;42.722;23.258;2023-12-14T03:39:04;9.50;;;6.63;;
11346;SDS011;5728;42.722;23.258;2023-12-14T03:41:31;9.30;;;5.90;;
11346;SDS011;5728;42.722;23.258;2023-12-14T03:43:58;7.37;;;6.07;;
11346;SDS011;5728;42.722;23.258;2023-12-14T03:46:24;8.80;;;6.43;;
11346;SDS011;5728;42.722;23.258;2023-12-14T03:48:53;9.43;;;6.40;;
11346;SDS011;5728;42.722;23.258;2023-12-14T03:51:20;10.87;;;6.60;;
11346;SDS011;5728;42.722;23.258;2023-12-14T03:53:47;8.37;;;5.57;;
11346;SDS011;5728;42.722;23.258;2023-12-14T03:56:14;7.60;;;5.10;;
11346;SDS011;5728;42.722;23.258;2023-12-14T03:58:40;9.37;;;6.07;;
11346;SDS011;5728;42.722;23.258;2023-12-14T04:01:07;7.20;;;5.47;;
11346;SDS011;5728;42.722;23.258;2023-12-14T04:03:34;7.20;;;5.53;;
11346;SDS011;5728;42.722;23.258;2023-12-14T04:06:03;7.43;;;5.50;;
11346;SDS011;5728;42.722;23.258;2023-12-14T04:08:30;7.53;;;5.67;;
11346;SDS011;5728;42.722;23.258;2023-12-14T04:10:57;7.73;;;5.07;;
11346;SDS011;5728;42.722;23.258;2023-12-14T04:13:24;8.40;;;4.93;;
11346;SDS011;5728;42.722;23.258;2023-12-14T04:15:51;9.17;;;6.07;;
11346;SDS011;5728;42.722;23.258;2023-12-14T04:18:18;13.87;;;4.87;;
11346;SDS011;5728;42.722;23.258;2023-12-14T04:20:45;7.37;;;5.33;;
11346;SDS011;5728;42.722;23.258;2023-12-14T04:23:13;11.20;;;6.10;;
11346;SDS011;5728;42.722;23.258;2023-12-14T04:25:40;9.33;;;5.80;;
11346;SDS011;5728;42.722;23.258;2023-12-14T04:28:07;10.70;;;6.47;;
11346;SDS011;5728;42.722;23.258;2023-12-14T04:30:34;8.90;;;5.67;;
11346;SDS011;5728;42.722;23.258;2023-12-14T04:33:01;10.33;;;6.83;;
11346;SDS011;5728;42.722;23.258;2023-12-14T04:35:28;10.70;;;6.70;;
11346;SDS011;5728;42.722;23.258;2023-12-14T04:37:56;10.85;;;7.72;;
11346;SDS011;5728;42.722;23.258;2023-12-14T04:40:24;9.97;;;7.20;;
11346;SDS011;5728;42.722;23.258;2023-12-14T04:42:52;9.83;;;7.20;;
11346;SDS011;5728;42.722;23.258;2023-12-14T04:45:19;8.80;;;7.10;;
11346;SDS011;5728;42.722;23.258;2023-12-14T04:47:46;9.97;;;6.93;;
11346;SDS011;5728;42.722;23.258;2023-12-14T04:50:13;14.57;;;7.80;;
11346;SDS011;5728;42.722;23.258;2023-12-14T04:52:40;13.63;;;8.20;;
11346;SDS011;5728;42.722;23.258;2023-12-14T04:55:08;10.70;;;7.07;;
11346;SDS011;5728;42.722;23.258;2023-12-14T04:57:36;13.00;;;8.83;;
11346;SDS011;5728;42.722;23.258;2023-12-14T05:00:03;12.70;;;7.23;;
11346;SDS011;5728;42.722;23.258;2023-12-14T05:02:32;14.23;;;8.60;;
11346;SDS011;5728;42.722;23.258;2023-12-14T05:04:59;12.73;;;8.00;;
11346;SDS011;5728;42.722;23.258;2023-12-14T05:07:26;14.43;;;9.10;;
11346;SDS011;5728;42.722;23.258;2023-12-14T05:09:55;12.50;;;8.53;;
11346;SDS011;5728;42.722;23.258;2023-12-14T05:12:22;13.77;;;8.80;;
11346;SDS011;5728;42.722;23.258;2023-12-14T05:14:51;15.03;;;9.43;;
11346;SDS011;5728;42.722;23.258;2023-12-14T05:17:19;13.30;;;8.80;;
11346;SDS011;5728;42.722;23.258;2023-12-14T05:19:45;16.67;;;10.27;;
11346;SDS011;5728;42.722;23.258;2023-12-14T05:22:12;13.10;;;9.00;;
11346;SDS011;5728;42.722;23.258;2023-12-14T05:24:39;17.03;;;10.07;;
11346;SDS011;5728;42.722;23.258;2023-12-14T05:27:06;12.50;;;9.20;;
11346;SDS011;5728;42.722;23.258;2023-12-14T05:29:33;13.17;;;10.20;;
11346;SDS011;5728;42.722;23.258;2023-12-14T05:32:02;13.90;;;9.63;;
11346;SDS011;5728;42.722;23.258;2023-12-14T05:34:29;14.57;;;10.07;;
11346;SDS011;5728;42.722;23.258;2023-12-14T05:36:56;15.33;;;10.23;;
11346;SDS011;5728;42.722;23.258;2023-12-14T05:39:23;19.07;;;10.20;;
11346;SDS011;5728;42.722;23.258;2023-12-14T05:41:50;13.93;;;9.60;;
11346;SDS011;5728;42.722;23.258;2023-12-14T05:44:17;20.23;;;10.27;;
11346;SDS011;5728;42.722;23.258;2023-12-14T05:46:43;13.70;;;9.53;;
11346;SDS011;5728;42.722;23.258;2023-12-14T05:49:12;16.07;;;11.13;;
11346;SDS011;5728;42.722;23.258;2023-12-14T05:51:39;15.37;;;11.23;;
11346;SDS011;5728;42.722;23.258;2023-12-14T05:54:07;17.20;;;11.80;;
11346;SDS011;5728;42.722;23.258;2023-12-14T05:56:34;22.40;;;12.50;;
11346;SDS011;5728;42.722;23.258;2023-12-14T05:59:00;20.13;;;13.30;;
11346;SDS011;5728;42.722;23.258;2023-12-14T06:01:27;17.20;;;12.87;;
11346;SDS011;5728;42.722;23.258;2023-12-14T06:03:54;13.77;;;10.57;;
11346;SDS011;5728;42.722;23.258;2023-12-14T06:06:23;17.80;;;12.37;;
11346;SDS011;5728;42.722;23.258;2023-12-14T06:08:50;21.83;;;13.70;;
11346;SDS011;5728;42.722;23.258;2023-12-14T06:11:16;18.30;;;11.47;;
11346;SDS011;5728;42.722;23.258;2023-12-14T06:13:44;16.17;;;12.97;;
11346;SDS011;5728;42.722;23.258;2023-12-14T06:16:11;17.00;;;10.80;;
11346;SDS011;5728;42.722;23.258;2023-12-14T06:18:39;21.53;;;12.13;;
11346;SDS011;5728;42.722;23.258;2023-12-14T06:21:08;16.87;;;11.50;;
11346;SDS011;5728;42.722;23.258;2023-12-14T06:23:38;15.27;;;9.80;;
11346;SDS011;5728;42.722;23.258;2023-12-14T06:26:06;14.90;;;10.90;;
11346;SDS011;5728;42.722;23.258;2023-12-14T06:28:33;14.03;;;10.57;;
11346;SDS011;5728;42.722;23.258;2023-12-14T06:30:59;14.70;;;9.23;;
11346;SDS011;5728;42.722;23.258;2023-12-14T06:33:27;14.80;;;8.87;;
11346;SDS011;5728;42.722;23.258;2023-12-14T06:35:54;16.27;;;9.00;;
11346;SDS011;5728;42.722;23.258;2023-12-14T06:38:21;13.33;;;9.00;;
11346;SDS011;5728;42.722;23.258;2023-12-14T06:40:49;16.97;;;8.93;;
11346;SDS011;5728;42.722;23.258;2023-12-14T06:43:16;12.63;;;8.47;;
11346;SDS011;5728;42.722;23.258;2023-12-14T06:45:43;16.60;;;9.27;;
11346;SDS011;5728;42.722;23.258;2023-12-14T06:48:10;13.23;;;9.30;;
11346;SDS011;5728;42.722;23.258;2023-12-14T06:50:37;17.23;;;9.60;;
11346;SDS011;5728;42.722;23.258;2023-12-14T06:53:04;12.10;;;8.90;;
11346;SDS011;5728;42.722;23.258;2023-12-14T06:55:31;17.10;;;11.13;;
11346;SDS011;5728;42.722;23.258;2023-12-14T06:57:59;15.33;;;9.73;;
11346;SDS011;5728;42.722;23.258;2023-12-14T07:00:26;12.43;;;7.63;;
11346;SDS011;5728;42.722;23.258;2023-12-14T07:02:54;46.13;;;30.27;;
11346;SDS011;5728;42.722;23.258;2023-12-14T07:05:21;13.40;;;8.77;;
11346;SDS011;5728;42.722;23.258;2023-12-14T07:07:48;20.33;;;9.60;;
11346;SDS011;5728;42.722;23.258;2023-12-14T07:10:16;14.40;;;9.90;;
11346;SDS011;5728;42.722;23.258;2023-12-14T07:12:43;14.00;;;9.03;;
11346;SDS011;5728;42.722;23.258;2023-12-14T07:15:11;13.93;;;9.47;;
11346;SDS011;5728;42.722;23.258;2023-12-14T07:17:38;18.03;;;10.70;;
11346;SDS011;5728;42.722;23.258;2023-12-14T07:20:06;20.00;;;10.43;;
11346;SDS011;5728;42.722;23.258;2023-12-14T07:22:34;19.27;;;13.70;;
11346;SDS011;5728;42.722;23.258;2023-12-14T07:25:00;21.73;;;12.57;;
11346;SDS011;5728;42.722;23.258;2023-12-14T07:27:28;20.13;;;12.63;;
11346;SDS011;5728;42.722;23.258;2023-12-14T07:29:56;23.07;;;13.13;;
11346;SDS011;5728;42.722;23.258;2023-12-14T07:32:24;18.60;;;13.23;;
11346;SDS011;5728;42.722;23.258;2023-12-14T07:34:52;22.10;;;15.30;;
11346;SDS011;5728;42.722;23.258;2023-12-14T07:37:20;21.13;;;13.80;;
11346;SDS011;5728;42.722;23.258;2023-12-14T07:39:47;25.87;;;15.13;;
11346;SDS011;5728;42.722;23.258;2023-12-14T07:42:14;19.70;;;14.93;;
11346;SDS011;5728;42.722;23.258;2023-12-14T07:44:44;23.03;;;14.70;;
11346;SDS011;5728;42.722;23.258;2023-12-14T07:47:12;20.27;;;12.77;;
11346;SDS011;5728;42.722;23.258;2023-12-14T07:49:40;20.13;;;13.87;;
11346;SDS011;5728;42.722;23.258;2023-12-14T07:52:07;25.93;;;13.10;;
11346;SDS011;5728;42.722;23.258;2023-12-14T07:54:34;18.03;;;11.10;;
11346;SDS011;5728;42.722;23.258;2023-12-14T07:57:02;17.80;;;11.93;;
11346;SDS011;5728;42.722;23.258;2023-12-14T07:59:29;18.60;;;10.10;;
11346;SDS011;5728;42.722;23.258;2023-12-14T08:01:56;14.53;;;9.30;;
11346;SDS011;5728;42.722;23.258;2023-12-14T08:04:23;19.48;;;11.80;;
11346;SDS011;5728;42.722;23.258;2023-12-14T08:06:51;23.73;;;12.90;;
11346;SDS011;5728;42.722;23.258;2023-12-14T08:09:18;17.53;;;11.43;;
11346;SDS011;5728;42.722;23.258;2023-12-14T08:11:45;15.90;;;10.83;;
11346;SDS011;5728;42.722;23.258;2023-12-14T08:14:12;26.93;;;12.33;;
11346;SDS011;5728;42.722;23.258;2023-12-14T08:16:39;20.00;;;11.20;;
11346;SDS011;5728;42.722;23.258;2023-12-14T08:19:06;20.03;;;11.37;;
11346;SDS011;5728;42.722;23.258;2023-12-14T08:21:33;25.63;;;12.83;;
11346;SDS011;5728;42.722;23.258;2023-12-14T08:24:02;23.83;;;12.00;;
11346;SDS011;5728;42.722;23.258;2023-12-14T08:26:29;20.77;;;11.97;;
11346;SDS011;5728;42.722;23.258;2023-12-14T08:28:56;18.80;;;12.00;;
11346;SDS011;5728;42.722;23.258;2023-12-14T08:31:23;17.83;;;12.20;;
11346;SDS011;5728;42.722;23.258;2023-12-14T08:33:50;23.53;;;13.10;;
11346;SDS011;5728;42.722;23.258;2023-12-14T08:36:17;24.17;;;12.80;;
11346;SDS011;5728;42.722;23.258;2023-12-14T08:38:44;27.57;;;13.03;;
11346;SDS011;5728;42.722;23.258;2023-12-14T08:41:13;22.77;;;12.53;;
11346;SDS011;5728;42.722;23.258;2023-12-14T08:43:40;27.23;;;11.87;;
11346;SDS011;5728;42.722;23.258;2023-12-14T08:46:07;22.30;;;12.93;;
11346;SDS011;5728;42.722;23.258;2023-12-14T08:48:35;26.17;;;13.00;;
11346;SDS011;5728;42.722;23.258;2023-12-14T08:51:02;26.60;;;13.20;;
11346;SDS011;5728;42.722;23.258;2023-12-14T08:53:30;19.10;;;11.93;;
11346;SDS011;5728;42.722;23.258;2023-12-14T08:55:57;20.43;;;12.67;;
11346;SDS011;5728;42.722;23.258;2023-12-14T08:58:25;23.87;;;12.13;;
11346;SDS011;5728;42.722;23.258;2023-12-14T09:00:52;22.50;;;12.67;;
11346;SDS011;5728;42.722;23.258;2023-12-14T09:03:19;19.13;;;11.60;;
11346;SDS011;5728;42.722;23.258;2023-12-14T09:05:47;18.23;;;11.80;;
11346;SDS011;5728;42.722;23.258;2023-12-14T09:08:14;21.87;;;12.67;;
11346;SDS011;5728;42.722;23.258;2023-12-14T09:10:41;19.60;;;11.43;;
11346;SDS011;5728;42.722;23.258;2023-12-14T09:13:08;27.60;;;12.57;;
11346;SDS011;5728;42.722;23.258;2023-12-14T09:15:36;15.73;;;9.43;;
11346;SDS011;5728;42.722;23.258;2023-12-14T09:18:03;15.17;;;9.00;;
11346;SDS011;5728;42.722;23.258;2023-12-14T09:20:30;14.53;;;8.80;;
11346;SDS011;5728;42.722;23.258;2023-12-14T09:22:57;19.37;;;10.47;;
11346;SDS011;5728;42.722;23.258;2023-12-14T09:25:24;32.23;;;15.43;;
11346;SDS011;5728;42.722;23.258;2023-12-14T09:27:51;36.20;;;19.57;;
11346;SDS011;5728;42.722;23.258;2023-12-14T09:30:18;45.57;;;24.27;;
11346;SDS011;5728;42.722;23.258;2023-12-14T09:32:47;40.50;;;24.50;;
11346;SDS011;5728;42.722;23.258;2023-12-14T09:35:14;47.23;;;24.20;;
11346;SDS011;5728;42.722;23.258;2023-12-14T09:37:41;44.80;;;22.77;;
11346;SDS011;5728;42.722;23.258;2023-12-14T09:40:08;34.03;;;19.90;;
11346;SDS011;5728;42.722;23.258;2023-12-14T09:42:37;46.50;;;22.77;;
11346;SDS011;5728;42.722;23.258;2023-12-14T09:45:06;44.03;;;25.10;;
11346;SDS011;5728;42.722;23.258;2023-12-14T09:47:34;39.53;;;23.67;;
11346;SDS011;5728;42.722;23.258;2023-12-14T09:50:03;47.77;;;23.23;;
11346;SDS011;5728;42.722;23.258;2023-12-14T09:52:31;42.43;;;23.30;;
11346;SDS011;5728;42.722;23.258;2023-12-14T09:54:58;39.40;;;20.83;;
11346;SDS011;5728;42.722;23.258;2023-12-14T09:57:29;38.00;;;19.70;;
11346;SDS011;5728;42.722;23.258;2023-12-14T09:59:56;32.80;;;18.93;;
11346;SDS011;5728;42.722;23.258;2023-12-14T10:02:24;34.83;;;18.70;;
11346;SDS011;5728;42.722;23.258;2023-12-14T10:04:52;32.93;;;20.13;;
11346;SDS011;5728;42.722;23.258;2023-12-14T10:07:22;36.67;;;18.70;;
11346;SDS011;5728;42.722;23.258;2023-12-14T10:09:49;29.40;;;18.93;;
11346;SDS011;5728;42.722;23.258;2023-12-14T10:12:17;25.80;;;17.70;;
11346;SDS011;5728;42.722;23.258;2023-12-14T10:14:45;32.43;;;17.67;;
11346;SDS011;5728;42.722;23.258;2023-12-14T10:17:16;30.40;;;16.07;;
11346;SDS011;5728;42.722;23.258;2023-12-14T10:19:44;27.30;;;13.00;;
11346;SDS011;5728;42.722;23.258;2023-12-14T10:22:13;22.17;;;10.93;;
11346;SDS011;5728;42.722;23.258;2023-12-14T10:24:44;27.30;;;11.03;;
11346;SDS011;5728;42.722;23.258;2023-12-14T10:27:13;29.03;;;13.17;;
11346;SDS011;5728;42.722;23.258;2023-12-14T10:29:41;19.10;;;9.77;;
11346;SDS011;5728;42.722;23.258;2023-12-14T10:32:10;23.10;;;9.83;;
11346;SDS011;5728;42.722;23.258;2023-12-14T10:34:37;14.13;;;8.17;;
11346;SDS011;5728;42.722;23.258;2023-12-14T10:37:04;17.10;;;8.30;;
11346;SDS011;5728;42.722;23.258;2023-12-14T10:39:32;13.57;;;7.03;;
11346;SDS011;5728;42.722;23.258;2023-12-14T10:42:03;7.10;;;5.10;;
11346;SDS011;5728;42.722;23.258;2023-12-14T10:44:33;23.57;;;6.53;;
11346;SDS011;5728;42.722;23.258;2023-12-14T10:47:02;9.93;;;5.87;;
11346;SDS011;5728;42.722;23.258;2023-12-14T10:49:30;9.40;;;5.10;;
11346;SDS011;5728;42.722;23.258;2023-12-14T10:51:59;7.40;;;4.57;;
11346;SDS011;5728;42.722;23.258;2023-12-14T10:54:29;5.87;;;4.13;;
11346;SDS011;5728;42.722;23.258;2023-12-14T10:57:04;7.70;;;3.50;;
11346;SDS011;5728;42.722;23.258;2023-12-14T10:59:33;7.80;;;4.93;;
11346;SDS011;5728;42.722;23.258;2023-12-14T11:02:06;7.30;;;3.57;;
11346;SDS011;5728;42.722;23.258;2023-12-14T11:10:15;2.63;;;2.27;;
11346;SDS011;5728;42.722;23.258;2023-12-14T11:12:53;8.77;;;2.20;;
11346;SDS011;5728;42.722;23.258;2023-12-14T11:15:22;2.17;;;1.97;;
11346;SDS011;5728;42.722;23.258;2023-12-14T11:18:19;1.83;;;1.73;;
11346;SDS011;5728;42.722;23.258;2023-12-14T11:20:47;2.40;;;2.03;;
11346;SDS011;5728;42.722;23.258;2023-12-14T11:23:15;1.77;;;1.60;;
11346;SDS011;5728;42.722;23.258;2023-12-14T11:25:46;2.03;;;1.80;;
11346;SDS011;5728;42.722;23.258;2023-12-14T11:28:16;2.30;;;1.70;;
11346;SDS011;5728;42.722;23.258;2023-12-14T11:30:43;1.70;;;1.60;;
11346;SDS011;5728;42.722;23.258;2023-12-14T11:33:11;1.43;;;1.33;;
11346;SDS011;5728;42.722;23.258;2023-12-14T11:35:38;1.50;;;1.40;;
11346;SDS011;5728;42.722;23.258;2023-12-14T11:38:05;2.43;;;1.50;;
11346;SDS011;5728;42.722;23.258;2023-12-14T11:40:37;3.00;;;1.20;;
11346;SDS011;5728;42.722;23.258;2023-12-14T11:43:05;2.43;;;1.83;;
11346;SDS011;5728;42.722;23.258;2023-12-14T11:45:35;1.40;;;1.30;;
11346;SDS011;5728;42.722;23.258;2023-12-14T11:48:03;1.60;;;1.27;;
11346;SDS011;5728;42.722;23.258;2023-12-14T11:50:31;1.70;;;1.27;;
11346;SDS011;5728;42.722;23.258;2023-12-14T11:52:58;2.43;;;1.20;;
11346;SDS011;5728;42.722;23.258;2023-12-14T11:55:26;2.00;;;1.10;;
11346;SDS011;5728;42.722;23.258;2023-12-14T11:57:53;1.20;;;1.10;;
11346;SDS011;5728;42.722;23.258;2023-12-14T12:00:23;1.70;;;1.50;;
11346;SDS011;5728;42.722;23.258;2023-12-14T12:02:52;1.30;;;1.20;;
11346;SDS011;5728;42.722;23.258;2023-12-14T12:05:36;2.20;;;1.20;;
11346;SDS011;5728;42.722;23.258;2023-12-14T12:08:04;1.33;;;1.23;;
11346;SDS011;5728;42.722;23.258;2023-12-14T12:10:31;1.33;;;1.13;;
11346;SDS011;5728;42.722;23.258;2023-12-14T12:12:59;1.50;;;1.40;;
11346;SDS011;5728;42.722;23.258;2023-12-14T12:15:27;1.60;;;1.30;;
11346;SDS011;5728;42.722;23.258;2023-12-14T12:17:55;5.03;;;1.47;;
11346;SDS011;5728;42.722;23.258;2023-12-14T12:20:22;1.33;;;1.20;;
11346;SDS011;5728;42.722;23.258;2023-12-14T12:22:50;1.43;;;1.33;;
11346;SDS011;5728;42.722;23.258;2023-12-14T12:25:17;1.30;;;1.20;;
11346;SDS011;5728;42.722;23.258;2023-12-14T12:27:44;1.50;;;1.37;;
11346;SDS011;5728;42.722;23.258;2023-12-14T12:30:12;1.73;;;1.40;;
11346;SDS011;5728;42.722;23.258;2023-12-14T12:32:40;1.40;;;1.30;;
11346;SDS011;5728;42.722;23.258;2023-12-14T12:35:08;1.27;;;1.17;;
11346;SDS011;5728;42.722;23.258;2023-12-14T12:37:35;1.00;;;0.97;;
11346;SDS011;5728;42.722;23.258;2023-12-14T12:40:03;1.47;;;1.13;;
11346;SDS011;5728;42.722;23.258;2023-12-14T12:42:30;1.37;;;1.27;;
11346;SDS011;5728;42.722;23.258;2023-12-14T12:44:57;1.20;;;1.10;;
11346;SDS011;5728;42.722;23.258;2023-12-14T12:47:25;1.57;;;1.47;;
11346;SDS011;5728;42.722;23.258;2023-12-14T12:49:52;1.20;;;1.10;;
11346;SDS011;5728;42.722;23.258;2023-12-14T12:52:21;1.10;;;1.00;;
11346;SDS011;5728;42.722;23.258;2023-12-14T12:54:48;3.17;;;1.30;;
11346;SDS011;5728;42.722;23.258;2023-12-14T12:57:15;1.27;;;1.17;;
11346;SDS011;5728;42.722;23.258;2023-12-14T12:59:42;1.20;;;1.10;;
11346;SDS011;5728;42.722;23.258;2023-12-14T13:02:10;1.10;;;1.00;;
11346;SDS011;5728;42.722;23.258;2023-12-14T13:04:37;2.53;;;1.07;;
11346;SDS011;5728;42.722;23.258;2023-12-14T13:07:04;1.20;;;1.10;;
11346;SDS011;5728;42.722;23.258;2023-12-14T13:09:33;4.73;;;1.20;;
11346;SDS011;5728;42.722;23.258;2023-12-14T13:12:00;3.47;;;1.10;;
11346;SDS011;5728;42.722;23.258;2023-12-14T13:14:27;2.63;;;1.10;;
11346;SDS011;5728;42.722;23.258;2023-12-14T13:16:54;1.17;;;1.07;;
11346;SDS011;5728;42.722;23.258;2023-12-14T13:19:23;1.37;;;1.27;;
11346;SDS011;5728;42.722;23.258;2023-12-14T13:21:51;2.90;;;1.20;;
11346;SDS011;5728;42.722;23.258;2023-12-14T13:24:18;1.30;;;1.20;;
11346;SDS011;5728;42.722;23.258;2023-12-14T13:26:46;1.07;;;1.07;;
11346;SDS011;5728;42.722;23.258;2023-12-14T13:29:13;1.73;;;1.20;;
11346;SDS011;5728;42.722;23.258;2023-12-14T13:31:40;0.90;;;0.90;;
11346;SDS011;5728;42.722;23.258;2023-12-14T13:34:07;1.40;;;1.07;;
11346;SDS011;5728;42.722;23.258;2023-12-14T13:36:34;1.07;;;1.07;;
11346;SDS011;5728;42.722;23.258;2023-12-14T13:39:01;1.00;;;1.00;;
11346;SDS011;5728;42.722;23.258;2023-12-14T13:41:28;1.00;;;1.00;;
11346;SDS011;5728;42.722;23.258;2023-12-14T13:44:01;1.30;;;1.20;;
11346;SDS011;5728;42.722;23.258;2023-12-14T13:46:28;2.03;;;1.10;;
11346;SDS011;5728;42.722;23.258;2023-12-14T13:48:55;1.10;;;1.07;;
11346;SDS011;5728;42.722;23.258;2023-12-14T13:51:21;0.90;;;0.90;;
11346;SDS011;5728;42.722;23.258;2023-12-14T13:53:49;1.10;;;1.00;;
11346;SDS011;5728;42.722;23.258;2023-12-14T13:56:16;2.00;;;1.00;;
11346;SDS011;5728;42.722;23.258;2023-12-14T13:58:43;9.00;;;1.30;;
11346;SDS011;5728;42.722;23.258;2023-12-14T14:01:11;11.60;;;1.20;;
11346;SDS011;5728;42.722;23.258;2023-12-14T14:03:40;1.07;;;1.00;;
11346;SDS011;5728;42.722;23.258;2023-12-14T14:06:07;1.70;;;1.20;;
11346;SDS011;5728;42.722;23.258;2023-12-14T14:08:34;1.33;;;1.23;;
11346;SDS011;5728;42.722;23.258;2023-12-14T14:11:02;3.63;;;1.20;;
11346;SDS011;5728;42.722;23.258;2023-12-14T14:13:29;8.00;;;2.17;;
11346;SDS011;5728;42.722;23.258;2023-12-14T14:15:56;3.43;;;2.60;;
11346;SDS011;5728;42.722;23.258;2023-12-14T14:18:24;6.83;;;2.60;;
11346;SDS011;5728;42.722;23.258;2023-12-14T14:20:51;4.30;;;2.90;;
11346;SDS011;5728;42.722;23.258;2023-12-14T14:23:18;5.57;;;3.17;;
11346;SDS011;5728;42.722;23.258;2023-12-14T14:25:45;5.03;;;2.50;;
11346;SDS011;5728;42.722;23.258;2023-12-14T14:28:12;6.93;;;2.67;;
11346;SDS011;5728;42.722;23.258;2023-12-14T14:30:39;4.00;;;2.70;;
11346;SDS011;5728;42.722;23.258;2023-12-14T14:33:06;2.97;;;2.20;;
11346;SDS011;5728;42.722;23.258;2023-12-14T14:35:34;3.17;;;2.53;;
11346;SDS011;5728;42.722;23.258;2023-12-14T14:38:02;4.80;;;2.87;;
11346;SDS011;5728;42.722;23.258;2023-12-14T14:40:29;6.63;;;2.20;;
11346;SDS011;5728;42.722;23.258;2023-12-14T14:42:56;4.13;;;2.33;;
11346;SDS011;5728;42.722;23.258;2023-12-14T14:45:23;5.20;;;2.13;;